Time;durP1;ratioP1;P1;durP2;ratioP2;P2;SDS_P1;SDS_P2;PMS_P1;PMS_P2;Temp;Humidity;BMP_temperature;BMP_pressure;BME280_temperature;BME280_humidity;BME280_pressure;Samples;Min_cycle;Max_cycle;Signal;HPM_P1;HPM_P2
2022/01/02 00:01:13;;;;;;;4.18;2.47;;;;;;;11.40;68.42;100483.00;5312164;27;35516;-89
2022/01/02 00:04:03;;;;;;;4.45;2.45;;;;;;;11.10;69.79;100482.25;5312507;27;33873;-89
2022/01/02 00:06:52;;;;;;;3.50;2.40;;;;;;;11.05;69.83;100477.94;5313008;27;34767;-89
2022/01/02 00:09:45;;;;;;;3.55;2.28;;;;;;;11.09;69.64;100477.94;5312729;27;34694;-89
2022/01/02 00:12:34;;;;;;;5.70;2.78;;;;;;;10.77;70.96;100471.94;5312306;27;34165;-89
2022/01/02 00:15:22;;;;;;;5.05;2.70;;;;;;;10.82;70.41;100477.97;5312471;27;34130;-89
2022/01/02 00:18:12;;;;;;;3.65;2.42;;;;;;;10.82;70.83;100477.97;5319382;27;34624;-89
2022/01/02 00:21:02;;;;;;;3.25;2.17;;;;;;;10.81;70.75;100468.47;5318938;27;34857;-88
2022/01/02 00:23:59;;;;;;;3.78;2.35;;;;;;;10.75;70.91;100471.06;5319001;27;34158;-88
2022/01/02 00:26:49;;;;;;;4.45;2.45;;;;;;;10.77;71.11;100474.53;5316900;27;34151;-88
2022/01/02 00:29:41;;;;;;;4.05;2.42;;;;;;;10.91;70.38;100480.56;5312380;27;35235;-89
2022/01/02 00:32:29;;;;;;;4.35;2.47;;;;;;;10.80;70.43;100474.50;5308918;27;35399;-89
2022/01/02 00:35:16;;;;;;;4.30;2.45;;;;;;;11.05;69.64;100472.75;5311029;27;34348;-88
2022/01/02 00:38:03;;;;;;;4.93;2.47;;;;;;;10.94;69.75;100477.09;5312062;27;35187;-90
2022/01/02 00:40:53;;;;;;;5.00;3.25;;;;;;;10.92;69.62;100478.81;5315294;27;34661;-90
2022/01/02 00:43:47;;;;;;;3.67;1.95;;;;;;;10.80;70.32;100475.41;5313357;27;34724;-89
2022/01/02 00:46:39;;;;;;;5.20;2.65;;;;;;;10.71;70.62;100479.75;5313125;27;34878;-90
2022/01/02 00:49:27;;;;;;;4.22;2.42;;;;;;;10.96;69.79;100471.03;5315255;27;35381;-90
2022/01/02 00:52:17;;;;;;;4.12;2.40;;;;;;;10.63;71.09;100478.03;5319873;27;34847;-90
2022/01/02 00:55:06;;;;;;;2.80;1.92;;;;;;;10.73;70.79;100477.97;5320148;27;35388;-92
2022/01/02 00:57:57;;;;;;;6.87;2.80;;;;;;;10.56;71.45;100478.00;5307326;27;34240;-89
2022/01/02 01:00:48;;;;;;;4.70;3.35;;;;;;;10.50;71.79;100480.63;5314522;27;35155;-89
2022/01/02 01:03:40;;;;;;;6.15;2.62;;;;;;;10.71;70.70;100477.16;5313238;27;34641;-89
2022/01/02 01:06:33;;;;;;;3.83;2.75;;;;;;;10.44;71.78;100471.09;5310675;27;34918;-90
2022/01/02 01:09:21;;;;;;;4.57;2.60;;;;;;;10.86;70.21;100470.19;5313220;27;34593;-90
2022/01/02 01:12:10;;;;;;;3.42;2.10;;;;;;;10.68;70.46;100475.41;5312229;27;35101;-89
2022/01/02 01:14:58;;;;;;;3.60;2.47;;;;;;;10.83;69.63;100472.78;5312198;27;35604;-90
2022/01/02 01:17:46;;;;;;;4.00;2.55;;;;;;;10.83;69.39;100467.59;5313298;27;34782;-92
2022/01/02 01:20:38;;;;;;;4.50;2.70;;;;;;;11.05;68.98;100473.59;5312455;27;34262;-90
2022/01/02 01:23:26;;;;;;;3.72;2.62;;;;;;;10.97;69.28;100475.38;5313336;27;34841;-90
2022/01/02 01:26:17;;;;;;;5.03;2.35;;;;;;;10.63;70.21;100471.94;5316284;27;35586;-90
2022/01/02 01:29:04;;;;;;;3.33;2.25;;;;;;;10.79;69.29;100475.41;5319590;27;35553;-89
2022/01/02 01:31:53;;;;;;;4.07;2.20;;;;;;;10.66;69.49;100470.22;5319871;27;35231;-89
2022/01/02 01:34:41;;;;;;;3.15;2.05;;;;;;;10.57;69.63;100465.03;5313345;27;33892;-90
2022/01/02 01:37:31;;;;;;;3.75;2.05;;;;;;;10.70;68.74;100467.63;5315359;27;35639;-90
2022/01/02 01:40:19;;;;;;;3.65;2.03;;;;;;;10.79;68.54;100465.88;5312880;27;34698;-90
2022/01/02 01:43:09;;;;;;;4.95;2.47;;;;;;;10.63;68.93;100462.44;5313096;27;35704;-89
2022/01/02 01:45:58;;;;;;;3.47;2.42;;;;;;;10.59;69.19;100457.25;5312689;27;35122;-89
2022/01/02 01:48:54;;;;;;;3.65;1.98;;;;;;;10.67;68.77;100452.91;5313361;27;34775;-89
2022/01/02 01:51:43;;;;;;;5.95;3.03;;;;;;;10.42;69.76;100465.91;5312702;27;35810;-89
2022/01/02 01:54:32;;;;;;;3.22;2.17;;;;;;;10.48;69.49;100466.78;5312285;27;35577;-90
2022/01/02 01:57:19;;;;;;;4.45;3.12;;;;;;;10.47;69.54;100455.53;5312469;27;34156;-89
2022/01/02 02:00:10;;;;;;;2.75;2.00;;;;;;;10.46;69.74;100451.19;5312728;27;34710;-90
2022/01/02 02:03:04;;;;;;;6.37;3.50;;;;;;;10.41;69.71;100455.53;5316455;27;35805;-90
2022/01/02 02:05:52;;;;;;;3.72;1.90;;;;;;;10.33;69.94;100458.13;5319527;27;35272;-90
2022/01/02 02:08:39;;;;;;;4.03;2.35;;;;;;;10.33;70.21;100458.13;5313495;27;34097;-90
2022/01/02 02:11:29;;;;;;;3.50;2.17;;;;;;;10.33;70.30;100458.13;5313260;27;34541;-89
2022/01/02 02:14:18;;;;;;;3.78;2.40;;;;;;;10.39;70.21;100457.25;5312917;27;35418;-89
2022/01/02 02:17:06;;;;;;;3.97;2.42;;;;;;;10.32;70.25;100456.41;5312957;27;34711;-88
2022/01/02 02:19:59;;;;;;;3.78;1.85;;;;;;;10.40;70.12;100459.00;5313084;27;34211;-90
2022/01/02 02:22:49;;;;;;;4.68;2.67;;;;;;;10.20;70.45;100453.78;5312752;27;35202;-89
2022/01/02 02:25:37;;;;;;;2.55;1.85;;;;;;;10.40;69.88;100453.81;5312573;27;34818;-89
2022/01/02 02:28:27;;;;;;;4.35;2.53;;;;;;;10.32;70.27;100452.97;5312475;27;35505;-90
2022/01/02 02:31:15;;;;;;;4.03;2.62;;;;;;;10.34;70.23;100453.78;5312160;27;34787;-88
2022/01/02 02:34:03;;;;;;;3.03;2.08;;;;;;;10.43;69.95;100453.78;5311340;27;34622;-90
2022/01/02 02:36:51;;;;;;;3.45;1.77;;;;;;;10.03;71.19;100451.16;5312231;27;34411;-90
2022/01/02 02:39:39;;;;;;;4.03;1.85;;;;;;;10.44;70.17;100450.34;5319867;27;34446;-89
2022/01/02 02:42:36;;;;;;;3.30;1.83;;;;;;;10.37;70.15;100446.91;5319036;27;34320;-91
2022/01/02 02:51:47;;;;;;;3.42;2.45;;;;;;;10.43;69.67;100427.84;5320377;27;34374;-89
2022/01/02 02:54:36;;;;;;;4.93;2.03;;;;;;;10.42;69.33;100432.19;5319620;27;34083;-89
2022/01/02 02:57:24;;;;;;;2.47;1.92;;;;;;;10.26;69.66;100433.03;5313876;27;35295;-89
2022/01/02 03:00:12;;;;;;;3.08;2.05;;;;;;;10.32;69.69;100433.06;5315175;27;35448;-91
2022/01/02 03:03:00;;;;;;;3.25;2.33;;;;;;;10.30;69.48;100441.72;5315849;27;35592;-90
2022/01/02 03:05:48;;;;;;;1.98;1.60;;;;;;;10.21;69.96;100435.59;5316486;27;34118;-90
2022/01/02 03:08:36;;;;;;;5.05;2.12;;;;;;;10.40;69.33;100435.66;5316725;27;34754;-89
2022/01/02 03:11:25;;;;;;;3.78;1.90;;;;;;;10.13;70.11;100426.13;5316752;27;35692;-90
2022/01/02 03:14:14;;;;;;;10.57;3.20;;;;;;;10.07;70.27;100420.91;5316296;27;34708;-89
2022/01/02 03:17:02;;;;;;;7.85;3.50;;;;;;;10.13;70.13;100419.19;5316233;27;34271;-89
2022/01/02 03:19:51;;;;;;;3.47;2.30;;;;;;;9.85;70.85;100415.72;5316530;27;34610;-89
2022/01/02 03:22:38;;;;;;;5.78;2.28;;;;;;;10.17;69.40;100417.44;5323036;27;34792;-91
2022/01/02 03:25:25;;;;;;;3.50;2.35;;;;;;;10.18;69.43;100408.84;5322924;27;35583;-90
2022/01/02 03:28:15;;;;;;;3.87;2.40;;;;;;;10.29;69.42;100399.34;5315948;27;34192;-89
2022/01/02 03:31:03;;;;;;;7.85;2.58;;;;;;;10.28;69.41;100400.22;5316665;27;34648;-89
2022/01/02 03:33:52;;;;;;;5.47;2.85;;;;;;;10.24;69.55;100406.22;5316114;27;34757;-90
2022/01/02 03:36:42;;;;;;;6.32;3.03;;;;;;;10.08;69.99;100402.78;5316076;27;34886;-89
2022/01/02 03:39:29;;;;;;;3.55;2.15;;;;;;;9.74;70.91;100407.06;5316475;27;34489;-89
2022/01/02 03:42:17;;;;;;;5.15;2.85;;;;;;;9.88;70.46;100401.88;5316353;27;35559;-89
2022/01/02 03:45:08;;;;;;;3.92;2.17;;;;;;;9.98;70.00;100398.47;5315995;27;36031;-90
2022/01/02 03:47:56;;;;;;;3.90;2.80;;;;;;;10.04;69.73;100390.66;5315840;27;34676;-88
2022/01/02 03:50:44;;;;;;;4.82;2.65;;;;;;;10.25;69.03;100390.66;5316220;27;35058;-89
2022/01/02 03:53:32;;;;;;;4.25;2.53;;;;;;;9.92;70.26;100388.06;5316169;27;34745;-90
2022/01/02 03:56:19;;;;;;;4.07;2.35;;;;;;;10.01;69.59;100394.13;5322471;27;34739;-89
2022/01/02 03:59:08;;;;;;;4.30;2.15;;;;;;;10.07;69.20;100403.63;5323000;27;34564;-90
2022/01/02 04:01:57;;;;;;;6.80;3.17;;;;;;;10.06;69.34;100401.91;5316141;27;35074;-90
2022/01/02 04:04:45;;;;;;;3.62;2.28;;;;;;;9.97;69.69;100397.56;5316112;27;35723;-89
2022/01/02 04:07:32;;;;;;;3.37;2.50;;;;;;;9.93;69.83;100401.06;5316388;27;34712;-89
2022/01/02 04:10:20;;;;;;;3.97;2.45;;;;;;;9.93;70.21;100400.16;5316199;27;34730;-89
2022/01/02 04:13:08;;;;;;;6.65;3.15;;;;;;;10.16;69.17;100407.97;5317587;27;34357;-89
2022/01/02 04:15:56;;;;;;;5.37;2.20;;;;;;;9.88;70.09;100404.47;5315830;27;35645;-89
2022/01/02 04:18:45;;;;;;;3.22;1.77;;;;;;;9.72;70.28;100404.47;5315893;27;34828;-89
2022/01/02 04:21:33;;;;;;;2.83;1.98;;;;;;;10.07;69.09;100402.78;5316311;27;35428;-89
2022/01/02 04:24:20;;;;;;;6.25;3.25;;;;;;;9.94;70.24;100395.00;5318362;27;34205;-88
2022/01/02 04:27:08;;;;;;;3.37;2.10;;;;;;;9.85;70.35;100396.72;5323015;27;34784;-89
2022/01/02 04:29:56;;;;;;;4.30;2.45;;;;;;;9.98;69.97;100399.31;5322755;27;34755;-89
2022/01/02 04:32:44;;;;;;;3.30;2.22;;;;;;;10.01;69.69;100404.50;5322676;27;35778;-90
2022/01/02 04:35:33;;;;;;;3.53;2.35;;;;;;;9.84;70.41;100403.63;5315760;27;34315;-88
2022/01/02 04:38:21;;;;;;;4.70;2.25;;;;;;;10.01;69.73;100401.06;5316120;27;35559;-91
2022/01/02 04:41:10;;;;;;;4.95;2.28;;;;;;;9.89;69.88;100399.31;5315874;27;34818;-88
2022/01/02 04:43:57;;;;;;;3.28;2.30;;;;;;;10.01;69.44;100404.50;5317856;27;35514;-89
2022/01/02 04:46:45;;;;;;;4.10;2.00;;;;;;;10.03;69.33;100413.16;5316447;27;34125;-89
2022/01/02 04:49:33;;;;;;;4.85;2.83;;;;;;;9.89;69.65;100409.69;5315750;27;35667;-89
2022/01/02 04:52:21;;;;;;;3.83;2.08;;;;;;;9.85;70.01;100409.66;5316077;27;34826;-88
2022/01/02 04:55:09;;;;;;;5.18;3.12;;;;;;;9.86;69.77;100408.78;5316095;27;34703;-89
2022/01/02 04:57:56;;;;;;;3.87;2.62;;;;;;;9.91;69.27;100396.72;5316049;27;34107;-89
2022/01/02 05:00:46;;;;;;;3.33;2.10;;;;;;;9.53;70.40;100397.53;5322503;27;35115;-89
2022/01/02 05:03:34;;;;;;;4.47;2.15;;;;;;;9.70;69.82;100393.22;5322371;27;35706;-90
2022/01/02 05:06:23;;;;;;;3.12;2.25;;;;;;;9.74;69.65;100394.97;5319116;27;35582;-91
2022/01/02 05:09:12;;;;;;;6.32;3.28;;;;;;;9.37;70.53;100389.72;5316137;27;34110;-89
2022/01/02 05:12:00;;;;;;;5.45;3.45;;;;;;;9.32;70.93;100390.53;5316127;27;34625;-90
2022/01/02 05:14:47;;;;;;;4.93;2.62;;;;;;;9.17;71.46;100384.47;5316101;27;35839;-89
2022/01/02 05:17:35;;;;;;;3.62;2.25;;;;;;;9.32;71.03;100386.22;5316394;27;35582;-89
2022/01/02 05:20:22;;;;;;;4.30;2.67;;;;;;;9.40;70.73;100378.50;5315825;27;35160;-90
2022/01/02 05:23:11;;;;;;;5.43;2.80;;;;;;;9.67;69.95;100382.00;5316018;27;35598;-88
2022/01/02 05:25:59;;;;;;;5.87;2.67;;;;;;;9.42;70.80;100381.94;5316161;27;34762;-90
2022/01/02 05:28:47;;;;;;;7.70;3.55;;;;;;;9.46;70.70;100375.06;5316141;27;35776;-89
2022/01/02 05:31:35;;;;;;;6.05;3.10;;;;;;;9.46;70.36;100385.41;5319648;27;35377;-89
2022/01/02 05:34:23;;;;;;;6.25;3.47;;;;;;;9.58;69.86;100388.03;5322694;27;34621;-89
2022/01/02 05:37:11;;;;;;;7.12;2.87;;;;;;;9.45;70.16;100381.06;5322004;27;34748;-89
2022/01/02 05:39:59;;;;;;;5.75;3.00;;;;;;;9.50;69.92;100376.81;5315914;27;34659;-89
2022/01/02 05:42:47;;;;;;;4.07;2.60;;;;;;;9.25;70.63;100375.84;5315967;27;34695;-89
2022/01/02 05:45:35;;;;;;;4.75;2.97;;;;;;;9.31;70.60;100374.16;5315761;27;34850;-89
2022/01/02 05:48:25;;;;;;;4.90;2.45;;;;;;;9.13;71.24;100366.31;5315792;27;34724;-89
2022/01/02 05:51:13;;;;;;;4.10;3.05;;;;;;;9.34;70.53;100373.28;5315920;27;34603;-90
2022/01/02 05:54:00;;;;;;;3.45;2.92;;;;;;;9.27;70.36;100367.22;5315439;27;34222;-90
2022/01/02 05:56:48;;;;;;;6.30;2.67;;;;;;;9.29;70.08;100368.09;5315640;27;34869;-89
2022/01/02 05:59:39;;;;;;;4.40;2.83;;;;;;;9.17;70.39;100368.91;5316208;27;34781;-89
2022/01/02 06:02:27;;;;;;;3.70;2.30;;;;;;;9.11;70.82;100362.84;5316378;27;34304;-89
2022/01/02 06:05:15;;;;;;;3.92;2.60;;;;;;;9.05;70.99;100360.25;5322494;27;35105;-89
2022/01/02 06:08:03;;;;;;;3.87;2.95;;;;;;;9.15;70.25;100355.09;5322611;27;34626;-90
2022/01/02 06:10:51;;;;;;;5.15;2.78;;;;;;;9.28;69.67;100362.91;5320296;27;34675;-92
2022/01/02 06:13:40;;;;;;;7.78;3.25;;;;;;;9.31;69.31;100360.34;5315880;27;34595;-89
2022/01/02 06:16:31;;;;;;;6.37;2.37;;;;;;;8.72;71.22;100357.53;5315672;27;35097;-91
2022/01/02 06:19:19;;;;;;;4.12;2.70;;;;;;;9.05;70.47;100360.25;5316014;27;34630;-89
2022/01/02 06:22:06;;;;;;;3.97;2.55;;;;;;;9.05;70.32;100355.09;5315747;27;35769;-90
2022/01/02 06:24:54;;;;;;;6.97;3.25;;;;;;;9.05;70.33;100357.66;5315423;27;34849;-91
2022/01/02 06:27:42;;;;;;;4.53;2.65;;;;;;;8.97;70.49;100360.22;5315856;27;35305;-89
2022/01/02 06:30:30;;;;;;;5.22;2.70;;;;;;;9.02;70.18;100355.94;5315234;27;34616;-90
2022/01/02 06:33:19;;;;;;;5.03;2.60;;;;;;;8.89;70.49;100352.44;5315929;27;35831;-90
2022/01/02 06:36:06;;;;;;;5.40;2.67;;;;;;;8.78;70.94;100356.69;5315451;27;35626;-90
2022/01/02 06:38:53;;;;;;;3.55;2.45;;;;;;;8.82;70.67;100361.03;5322590;27;33848;-89
2022/01/02 06:41:41;;;;;;;3.97;2.72;;;;;;;8.63;71.13;100367.84;5321972;27;35604;-90
2022/01/02 06:44:29;;;;;;;3.67;2.55;;;;;;;8.72;70.65;100367.00;5315773;27;34857;-90
2022/01/02 06:47:16;;;;;;;3.12;2.28;;;;;;;8.69;70.85;100361.81;5314608;27;35567;-91
2022/01/02 06:50:12;;;;;;;4.47;2.60;;;;;;;8.80;70.70;100354.97;5315534;27;35278;-90
2022/01/02 06:53:00;;;;;;;4.72;2.83;;;;;;;9.00;70.49;100357.66;5315342;27;35535;-90
2022/01/02 06:55:48;;;;;;;3.80;2.12;;;;;;;8.63;71.87;100366.97;5316295;27;34858;-90
2022/01/02 06:58:38;;;;;;;4.07;2.62;;;;;;;8.49;72.50;100370.31;5315243;27;35488;-89
2022/01/02 07:01:26;;;;;;;6.05;3.10;;;;;;;8.18;73.74;100370.94;5315416;27;34182;-90
2022/01/02 07:04:13;;;;;;;3.80;2.75;;;;;;;8.69;72.32;100367.00;5315704;27;35664;-89
2022/01/02 07:07:03;;;;;;;5.10;2.47;;;;;;;8.62;72.01;100368.66;5315328;27;34667;-88
2022/01/02 07:09:51;;;;;;;5.97;3.20;;;;;;;8.61;72.09;100377.31;5315142;27;34630;-90
2022/01/02 07:12:38;;;;;;;6.05;3.33;;;;;;;8.94;71.06;100384.38;5316854;27;34168;-90
2022/01/02 07:15:27;;;;;;;4.70;2.75;;;;;;;8.88;71.14;100375.72;5320935;27;35619;-89
2022/01/02 07:18:14;;;;;;;4.72;3.10;;;;;;;8.88;70.87;100380.88;5315693;27;34832;-89
2022/01/02 07:21:02;;;;;;;4.97;3.00;;;;;;;8.86;70.59;100374.84;5314833;27;35679;-90
2022/01/02 07:23:52;;;;;;;5.90;3.45;;;;;;;8.74;71.05;100381.66;5315978;27;34476;-90
2022/01/02 07:26:40;;;;;;;6.55;3.70;;;;;;;8.84;70.67;100392.06;5316560;27;34548;-90
2022/01/02 07:29:27;;;;;;;5.68;3.72;;;;;;;8.75;70.75;100387.72;5316398;27;35818;-89
2022/01/02 07:32:15;;;;;;;5.43;3.03;;;;;;;9.12;69.83;100375.81;5318349;27;34649;-90
2022/01/02 07:35:06;;;;;;;5.60;3.12;;;;;;;9.07;69.75;100374.06;5316479;27;35168;-90
2022/01/02 07:37:53;;;;;;;7.28;3.70;;;;;;;9.07;69.80;100374.06;5316241;27;34677;-89
2022/01/02 07:40:42;;;;;;;5.57;3.47;;;;;;;9.10;69.86;100372.34;5315985;27;34879;-89
2022/01/02 07:43:29;;;;;;;5.30;3.45;;;;;;;9.00;70.49;100364.56;5318103;27;35579;-90
2022/01/02 07:46:16;;;;;;;5.82;2.92;;;;;;;9.02;70.95;100366.28;5322764;27;34257;-90
2022/01/02 07:49:03;;;;;;;5.20;3.67;;;;;;;9.32;70.19;100369.84;5322938;27;34621;-89
2022/01/02 07:51:51;;;;;;;6.78;3.33;;;;;;;9.36;69.94;100371.56;5316786;27;34850;-89
2022/01/02 07:54:38;;;;;;;6.10;3.15;;;;;;;9.25;70.38;100365.50;5316666;27;34714;-89
2022/01/02 07:57:27;;;;;;;8.18;3.53;;;;;;;9.08;71.42;100370.62;5316070;27;34294;-89
2022/01/02 08:00:16;;;;;;;4.85;3.40;;;;;;;9.19;70.76;100371.53;5316337;27;34648;-89
2022/01/02 08:03:04;;;;;;;7.68;3.20;;;;;;;9.24;70.16;100374.12;5315801;27;34812;-89
2022/01/02 08:05:55;;;;;;;;;;;;;;;9.50;68.42;100369.88;5316450;27;34640;-89
2022/01/02 08:08:44;;;;;;;5.00;2.62;;;;;;;9.11;70.02;100365.44;5316200;27;33811;-91
2022/01/02 08:11:31;;;;;;;4.53;2.87;;;;;;;9.06;69.90;100355.09;5315615;27;34584;-88
2022/01/02 08:14:36;;;;;;;4.65;2.87;;;;;;;8.97;70.68;100345.56;5315988;27;34891;-90
2022/01/02 08:20:57;;;;;;;5.30;3.20;;;;;;;9.22;69.83;100343.06;5320149;26;35279;-89
2022/01/02 08:23:44;;;;;;;3.92;2.35;;;;;;;9.52;68.54;100325.84;5337372;26;35694;-89
2022/01/02 08:26:41;;;;;;;6.40;2.90;;;;;;;9.49;69.00;100333.62;5337919;26;34797;-90
2022/01/02 08:29:29;;;;;;;3.60;2.65;;;;;;;9.32;70.15;100349.97;5342519;26;34708;-89
2022/01/02 08:32:18;;;;;;;4.70;3.30;;;;;;;9.17;70.77;100345.63;5344389;26;34149;-90
2022/01/02 08:35:11;;;;;;;4.85;3.17;;;;;;;9.15;71.38;100342.16;5344353;26;35587;-89
2022/01/02 08:37:58;;;;;;;5.37;3.55;;;;;;;9.47;70.05;100337.91;5338194;26;35780;-89
2022/01/02 08:40:51;;;;;;;5.95;3.70;;;;;;;9.31;71.17;100339.63;5337252;26;35555;-88
2022/01/02 08:43:38;;;;;;;8.38;3.58;;;;;;;9.63;70.35;100339.69;5337950;26;34168;-88
2022/01/02 08:46:25;;;;;;;4.85;3.30;;;;;;;9.56;70.90;100335.34;5338723;26;34711;-89
2022/01/02 08:49:14;;;;;;;4.95;2.67;;;;;;;9.71;70.62;100337.09;5337938;26;34832;-90
2022/01/02 08:52:01;;;;;;;6.78;3.30;;;;;;;9.86;69.91;100324.16;5338325;26;35254;-90
2022/01/02 08:54:49;;;;;;;7.00;4.15;;;;;;;10.13;68.92;100325.88;5338950;26;35117;-90
2022/01/02 08:57:36;;;;;;;7.93;4.82;;;;;;;10.06;69.37;100331.91;5338337;26;34823;-89
2022/01/02 09:00:23;;;;;;;6.05;3.50;;;;;;;10.47;67.79;100333.62;5338178;26;35856;-90
2022/01/02 09:03:11;;;;;;;11.00;4.78;;;;;;;10.40;67.82;100324.13;5344828;26;34601;-89
2022/01/02 09:06:00;;;;;;;6.80;4.40;;;;;;;10.29;68.68;100321.53;5344474;26;34167;-91
2022/01/02 09:08:51;;;;;;;6.30;3.50;;;;;;;10.35;68.99;100325.88;5344672;26;34654;-91
2022/01/02 09:11:38;;;;;;;4.90;3.15;;;;;;;10.78;67.72;100312.75;5338088;26;35773;-92
2022/01/02 09:14:26;;;;;;;4.45;2.95;;;;;;;10.72;67.86;100307.59;5338243;26;35709;-90
2022/01/02 09:17:13;;;;;;;6.15;3.22;;;;;;;10.86;67.59;100311.00;5337308;26;35275;-89
2022/01/02 09:20:00;;;;;;;4.68;2.87;;;;;;;11.08;66.49;100315.19;5336949;26;34642;-89
2022/01/02 09:22:51;;;;;;;7.28;2.78;;;;;;;11.15;66.22;100309.97;5336152;26;34768;-89
2022/01/02 09:25:39;;;;;;;5.07;3.28;;;;;;;11.32;65.23;100308.16;5336423;26;34592;-89
2022/01/02 09:28:26;;;;;;;4.75;2.42;;;;;;;11.38;65.31;100302.94;5336614;26;34229;-89
2022/01/02 09:31:16;;;;;;;4.22;2.58;;;;;;;11.46;65.05;100306.31;5336208;26;34747;-88
2022/01/02 09:34:03;;;;;;;4.78;2.40;;;;;;;11.39;65.37;100307.22;5336116;26;34774;-88
2022/01/02 09:36:51;;;;;;;4.60;2.55;;;;;;;11.61;64.28;100312.28;5344468;26;34575;-89
2022/01/02 09:39:40;;;;;;;2.67;2.05;;;;;;;11.73;64.13;100315.63;5339138;26;34242;-89
2022/01/02 09:42:32;;;;;;;3.42;2.10;;;;;;;11.51;65.00;100303.69;5343970;26;34745;-89
2022/01/02 09:45:20;;;;;;;3.45;2.08;;;;;;;11.39;65.73;100289.06;5337503;26;34756;-88
2022/01/02 09:48:09;;;;;;;4.80;2.12;;;;;;;11.78;64.30;100278.34;5336993;26;34768;-90
2022/01/02 09:51:01;;;;;;;6.82;2.58;;;;;;;11.71;64.68;100269.75;5337343;26;34099;-88
2022/01/02 09:53:49;;;;;;;4.57;2.35;;;;;;;12.13;62.90;100263.31;5336916;26;34707;-88
2022/01/02 09:56:19;;;;;;;8.13;2.28;;;;;;;11.93;63.69;100258.28;5336628;26;34037;-89
2022/01/02 09:58:48;;;;;;;3.42;1.80;;;;;;;12.12;62.58;100245.13;5336608;26;33509;-89
2022/01/02 10:01:18;;;;;;;3.47;2.47;;;;;;;12.11;61.86;100231.25;5342932;26;33464;-89
2022/01/02 10:03:51;;;;;;;3.17;1.55;;;;;;;12.45;60.74;100232.63;5336254;26;34067;-89
2022/01/02 10:06:21;;;;;;;3.17;1.60;;;;;;;12.58;60.10;100231.56;5317456;26;35567;-90
2022/01/02 10:08:50;;;;;;;2.22;1.40;;;;;;;12.63;59.67;100234.13;5336651;26;33981;-90
2022/01/02 10:11:22;;;;;;;1.90;1.33;;;;;;;12.70;58.78;100236.63;5317171;26;34094;-89
2022/01/02 10:13:53;;;;;;;1.73;1.17;;;;;;;12.62;58.97;100235.88;5336916;26;33623;-90
2022/01/02 10:16:31;;;;;;;2.67;1.45;;;;;;;12.71;58.89;100230.53;5343771;26;33136;-91
2022/01/02 10:19:02;;;;;;;5.37;1.55;;;;;;;12.76;58.21;100227.88;5316185;26;34190;-89
2022/01/02 10:21:33;;;;;;;4.53;1.60;;;;;;;12.72;58.66;100232.25;5335130;26;33122;-89
2022/01/02 10:24:15;;;;;;;1.77;1.20;;;;;;;12.99;57.50;100228.41;5333399;26;33442;-89
2022/01/02 10:27:06;;;;;;;2.37;1.62;;;;;;;12.92;57.25;100224.16;5333094;26;34559;-88
2022/01/02 10:29:45;;;;;;;;;;;;;;;13.06;56.54;100216.16;5333748;26;34412;-91
2022/01/02 10:32:31;;;;;;;2.60;1.30;;;;;;;13.03;56.32;100211.00;5313767;26;32923;-90
2022/01/02 10:35:12;;;;;;;3.72;1.73;;;;;;;13.19;55.83;100199.47;5340456;26;34725;-89
2022/01/02 10:37:41;;;;;;;;;;;;;;;13.07;56.58;100193.56;5339830;26;33754;-90
2022/01/02 10:40:29;;;;;;;2.35;1.30;;;;;;;13.26;55.55;100174.16;5317345;26;33708;-90
2022/01/02 10:43:01;;;;;;;2.35;1.65;;;;;;;13.22;55.27;100170.75;5334179;26;33359;-90
2022/01/02 10:45:35;;;;;;;3.47;1.98;;;;;;;13.20;56.06;100177.72;5315422;26;35079;-89
2022/01/02 10:48:06;;;;;;;2.70;1.90;;;;;;;13.19;56.41;100185.56;5333812;26;33467;-90
2022/01/02 10:50:38;;;;;;;4.07;1.85;;;;;;;13.09;56.20;100184.84;5334508;26;34619;-89
2022/01/02 10:53:15;;;;;;;6.55;2.72;;;;;;;13.18;56.76;100182.09;5320114;26;33493;-89
2022/01/02 10:55:46;;;;;;;4.30;2.45;;;;;;;13.18;57.46;100170.81;5313859;26;34302;-90
2022/01/02 10:58:16;;;;;;;4.00;1.92;;;;;;;13.39;56.09;100157.47;5336495;26;33981;-88
2022/01/02 11:00:45;;;;;;;5.30;2.03;;;;;;;13.30;55.52;100156.78;5334248;26;34470;-89
2022/01/02 11:03:16;;;;;;;3.35;1.90;;;;;;;13.45;54.39;100159.97;5334963;26;34044;-89
2022/01/02 11:05:47;;;;;;;3.25;1.58;;;;;;;13.35;56.31;100155.78;5340952;26;34250;-89
2022/01/02 11:08:16;;;;;;;2.72;1.85;;;;;;;13.32;55.67;100155.84;5314353;26;34127;-91
2022/01/02 11:10:45;;;;;;;3.95;2.28;;;;;;;13.36;55.70;100146.22;5333804;26;34494;-90
2022/01/02 11:13:17;;;;;;;2.22;1.45;;;;;;;13.67;54.35;100136.13;5314269;26;33189;-89
2022/01/02 11:15:45;;;;;;;2.12;1.37;;;;;;;13.54;54.04;100132.88;5335257;26;34438;-89
2022/01/02 11:18:15;;;;;;;1.48;1.12;;;;;;;13.54;54.54;100135.50;5333526;26;34765;-88
2022/01/02 11:20:44;;;;;;;2.08;1.33;;;;;;;13.36;55.56;100131.47;5320423;26;33619;-92
2022/01/02 11:23:20;;;;;;;2.67;1.62;;;;;;;13.42;55.67;100130.50;5334942;26;33019;-89
2022/01/02 11:25:59;;;;;;;2.47;1.73;;;;;;;13.42;55.58;100122.69;5314808;26;33906;-88
2022/01/02 11:28:35;;;;;;;2.87;1.52;;;;;;;13.36;55.67;100115.84;5333708;26;33961;-89
2022/01/02 11:31:05;;;;;;;2.87;1.55;;;;;;;13.41;55.97;100105.34;5313433;26;34619;-88
2022/01/02 11:33:40;;;;;;;2.97;1.62;;;;;;;13.43;56.20;100100.94;5331325;26;33467;-88
2022/01/02 11:36:23;;;;;;;2.78;1.37;;;;;;;13.26;56.56;100102.94;5340924;26;33637;-90
2022/01/02 11:39:00;;;;;;;3.30;1.90;;;;;;;13.53;56.00;100092.06;5334493;26;33945;-89
2022/01/02 11:41:40;;;;;;;4.12;1.77;;;;;;;13.34;56.73;100101.13;5335031;26;34535;-93
2022/01/02 11:44:13;;;;;;;2.83;1.58;;;;;;;13.55;56.22;100082.44;5314878;26;32310;-89
2022/01/02 11:46:52;;;;;;;2.30;1.30;;;;;;;13.34;56.65;100075.91;5334830;26;34013;-93
2022/01/02 11:49:22;;;;;;;3.05;1.70;;;;;;;13.31;56.97;100075.94;5334493;26;33941;-89
2022/01/02 11:52:08;;;;;;;3.03;1.70;;;;;;;13.35;56.56;100079.38;5318137;26;31830;-89
2022/01/02 11:54:55;;;;;;;3.35;1.85;;;;;;;13.51;56.17;100066.94;5340398;26;33629;-89
2022/01/02 11:57:52;;;;;;;2.28;1.58;;;;;;;13.57;55.56;100067.66;5339724;26;34306;-89
2022/01/02 12:00:37;;;;;;;3.12;1.55;;;;;;;13.55;56.08;100056.38;5334545;26;35005;-91
2022/01/02 12:03:06;;;;;;;7.32;1.95;;;;;;;13.62;55.93;100054.53;5314389;26;34357;-88
2022/01/02 12:05:35;;;;;;;3.35;1.75;;;;;;;13.48;56.66;100054.78;5334399;26;33325;-90
2022/01/02 12:08:06;;;;;;;2.60;1.27;;;;;;;13.61;56.98;100052.81;5333997;26;33401;-88
2022/01/02 12:10:38;;;;;;;2.45;1.55;;;;;;;13.59;56.72;100049.38;5334383;26;33883;-88
2022/01/02 12:13:13;;;;;;;2.83;1.50;;;;;;;13.71;56.28;100046.53;5341454;26;34512;-89
2022/01/02 12:16:08;;;;;;;3.47;1.60;;;;;;;13.72;55.78;100040.41;5314469;26;32393;-89
2022/01/02 12:18:55;;;;;;;3.35;1.87;;;;;;;13.52;56.22;100035.59;5334602;26;34019;-89
2022/01/02 12:21:25;;;;;;;4.32;2.40;;;;;;;13.60;56.31;100027.63;5334573;26;33745;-89
2022/01/02 12:23:55;;;;;;;3.08;2.03;;;;;;;13.76;56.16;100020.34;5334700;26;34440;-89
2022/01/02 12:26:29;;;;;;;2.42;1.67;;;;;;;13.75;55.80;100013.41;5335200;26;33244;-88
2022/01/02 12:29:01;;;;;;;2.42;1.52;;;;;;;13.57;56.27;100004.22;5335028;26;34067;-88
2022/01/02 12:31:35;;;;;;;5.60;2.60;;;;;;;13.53;56.91;100006.06;5340661;26;35375;-89
2022/01/02 12:34:17;;;;;;;6.85;2.17;;;;;;;13.54;57.81;99999.94;5334039;26;33469;-89
2022/01/02 12:36:47;;;;;;;2.80;1.65;;;;;;;13.42;58.38;99997.59;5314039;26;33567;-89
2022/01/02 12:39:28;;;;;;;3.12;2.05;;;;;;;13.36;58.91;99997.69;5334140;26;33966;-89
2022/01/02 12:42:02;;;;;;;1.62;1.37;;;;;;;13.49;58.03;99993.13;5334466;26;33405;-90
2022/01/02 12:44:32;;;;;;;4.45;2.85;;;;;;;13.41;58.42;99991.53;5334566;26;33905;-89
2022/01/02 12:47:04;;;;;;;6.73;2.30;;;;;;;13.51;57.79;99994.81;5341706;26;33179;-89
2022/01/02 12:49:35;;;;;;;2.20;1.70;;;;;;;13.45;58.07;99995.75;5340400;26;34370;-92
2022/01/02 12:52:06;;;;;;;3.12;1.98;;;;;;;13.41;58.79;99990.66;5332851;26;34066;-89
2022/01/02 12:54:36;;;;;;;6.70;1.75;;;;;;;13.55;58.57;99993.81;5334944;26;32967;-89
2022/01/02 12:57:08;;;;;;;7.20;3.47;;;;;;;13.68;58.57;99993.59;5330233;26;33797;-89
2022/01/02 12:59:40;;;;;;;3.35;1.52;;;;;;;13.75;58.66;99979.50;5334907;26;33907;-90
2022/01/02 13:02:11;;;;;;;5.22;2.12;;;;;;;13.71;58.87;99990.91;5341014;26;33791;-88